This is the latest recevied weather packets stored in our database for station/object DM2KB-13. If no packets are shown the sender has not sent any weather packets the latest 1 day(s).
| Time | Temp. | Humidity | Pressure | Rain* | Wind** | Luminosity | Snow |
|---|---|---|---|---|---|---|---|
| 1836274801 | 17.22° C | 79% | 1014.5 hPa | 0 mm | 0.45 m/s, 184° | 0 W/m² | - |
| 1836274501 | 17.22° C | 79% | 1014.5 hPa | 0 mm | 0.45 m/s, 187° | 0 W/m² | - |
| 1836274351 | 17.22° C | 79% | 1014.4 hPa | 0 mm | 0.89 m/s, 175° | 0 W/m² | - |
| 1836274200 | 17.22° C | 79% | 1014.6 hPa | 0 mm | 0.45 m/s, 172° | 0 W/m² | - |
| 1836273900 | 17.22° C | 79% | 1014.8 hPa | 0 mm | 0.45 m/s, 185° | 0 W/m² | - |
| 1778034051 | 10° C | 98% | 1005.2 hPa | 2.54 mm | 0.89 m/s, 2° | 0 W/m² | - |
| 1778033751 | 10° C | 98% | 1005.2 hPa | 2.79 mm | 0.45 m/s, 15° | 0 W/m² | - |
| 1778033451 | 10° C | 98% | 1005.2 hPa | 2.79 mm | 0.89 m/s, 8° | 0 W/m² | - |
| 1778033151 | 10° C | 98% | 1005.2 hPa | 2.79 mm | 0.89 m/s, 16° | 0 W/m² | - |
| 1778032850 | 10° C | 98% | 1005.2 hPa | 2.79 mm | 0.89 m/s, 54° | 0 W/m² | - |
| 1778032550 | 10° C | 98% | 1005.2 hPa | 2.54 mm | 0.89 m/s, 9° | 0 W/m² | - |
| 1778032250 | 10° C | 98% | 1005.3 hPa | 2.54 mm | 0.89 m/s, 92° | 0 W/m² | - |
| 1778031949 | 10° C | 98% | 1005.3 hPa | 2.29 mm | 0.89 m/s, 50° | 0 W/m² | - |
| 1778031649 | 10° C | 98% | 1005.3 hPa | 2.03 mm | 0.89 m/s, 13° | 0 W/m² | - |
| 1778031349 | 10° C | 98% | 1005.3 hPa | 2.03 mm | 0.89 m/s, 329° | 0 W/m² | - |
| 1778031049 | 10° C | 98% | 1005.4 hPa | 2.03 mm | 0.89 m/s, 21° | 0 W/m² | - |
| 1778030748 | 10° C | 98% | 1005.4 hPa | 2.03 mm | 0.89 m/s, 8° | 0 W/m² | - |
| 1778030448 | 10° C | 98% | 1005.4 hPa | 2.03 mm | 0.89 m/s, 314° | 0 W/m² | - |
| 1778030148 | 10° C | 98% | 1005.4 hPa | 1.78 mm | 0.89 m/s, 29° | 0 W/m² | - |
| 1778029847 | 10° C | 98% | 1005.5 hPa | 1.78 mm | 0.89 m/s, 34° | 0 W/m² | - |
| 1778029547 | 10° C | 98% | 1005.5 hPa | 1.78 mm | 0.89 m/s, 37° | 0 W/m² | - |
| 1778029247 | 10° C | 98% | 1005.5 hPa | 1.78 mm | 0.89 m/s, 9° | 0 W/m² | - |
| 1778028947 | 10° C | 98% | 1005.5 hPa | 1.78 mm | 0.89 m/s, 327° | 0 W/m² | - |
| 1778028646 | 10° C | 98% | 1005.6 hPa | 1.78 mm | 1.34 m/s, 6° | 0 W/m² | - |
| 1778028346 | 10° C | 98% | 1005.6 hPa | 2.03 mm | 1.34 m/s, 33° | 0 W/m² | - |
* Rain latest hour (hover to see other rain measurements)
** Current wind speed in m/s (hover to see current wind gust speed)